createdAt,value
2022-08-16T00:01:49.355Z,10.02
2022-08-16T00:06:13.105Z,9.80
2022-08-16T00:10:38.106Z,11.40
2022-08-16T00:15:06.327Z,10.63
2022-08-16T00:19:41.850Z,10.32
2022-08-16T00:24:05.111Z,10.68
2022-08-16T00:28:34.227Z,9.82
2022-08-16T00:33:00.546Z,10.80
2022-08-16T00:37:57.923Z,10.13
2022-08-16T00:42:10.088Z,11.27
2022-08-16T00:47:02.491Z,10.32
2022-08-16T00:51:29.490Z,10.35
2022-08-16T00:55:56.994Z,10.70
2022-08-16T01:00:23.747Z,10.65
2022-08-16T01:05:10.512Z,10.98
2022-08-16T01:09:33.765Z,10.93
2022-08-16T01:14:05.146Z,10.55
2022-08-16T01:18:41.615Z,10.80
2022-08-16T01:24:00.881Z,11.43
2022-08-16T01:28:30.886Z,10.75
2022-08-16T01:33:14.711Z,10.60
2022-08-16T01:37:52.976Z,10.82
2022-08-16T01:42:20.172Z,10.73
2022-08-16T01:46:47.165Z,11.23
2022-08-16T01:51:17.427Z,11.45
2022-08-16T01:55:41.745Z,11.32
2022-08-16T02:00:19.316Z,11.80
2022-08-16T02:04:48.725Z,11.02
2022-08-16T02:09:23.226Z,11.30
2022-08-16T02:13:47.405Z,11.20
2022-08-16T02:18:18.527Z,11.38
2022-08-16T02:22:41.346Z,10.30
2022-08-16T02:27:04.280Z,10.32
2022-08-16T02:32:04.093Z,10.65
2022-08-16T02:36:14.241Z,10.43
2022-08-16T02:40:57.647Z,10.48
2022-08-16T02:45:27.800Z,11.50
2022-08-16T02:50:52.128Z,10.65
2022-08-16T02:54:35.424Z,10.98
2022-08-16T02:59:00.864Z,10.95
2022-08-16T03:03:26.325Z,11.63
2022-08-16T03:07:50.961Z,11.60
2022-08-16T03:12:16.439Z,10.93
2022-08-16T03:16:58.730Z,10.27
2022-08-16T03:21:28.004Z,11.15
2022-08-16T03:26:00.425Z,10.75
2022-08-16T03:30:30.866Z,10.32
2022-08-16T03:34:57.485Z,9.52
2022-08-16T03:39:20.303Z,9.93
2022-08-16T03:43:50.982Z,8.88
2022-08-16T03:48:18.363Z,8.23
2022-08-16T03:52:43.858Z,8.55
2022-08-16T03:57:11.504Z,8.73
2022-08-16T04:01:38.498Z,9.73
2022-08-16T04:06:02.280Z,8.95
2022-08-16T04:10:36.304Z,8.43
2022-08-16T04:15:07.168Z,7.80
2022-08-16T04:19:35.946Z,7.95
2022-08-16T04:23:58.845Z,6.82
2022-08-16T04:28:52.172Z,5.93
2022-08-16T04:33:07.545Z,5.85
2022-08-16T04:37:32.846Z,5.78
2022-08-16T04:42:17.993Z,5.50
2022-08-16T04:47:03.137Z,5.63
2022-08-16T04:51:25.907Z,4.88
2022-08-16T04:55:53.367Z,4.82
2022-08-16T05:00:34.502Z,4.47
2022-08-16T05:05:17.804Z,4.47
2022-08-16T05:09:45.084Z,4.32
2022-08-16T05:14:20.211Z,4.65
2022-08-16T05:18:58.607Z,5.10
2022-08-16T05:23:23.206Z,4.60
2022-08-16T05:27:47.407Z,3.88
2022-08-16T05:32:32.453Z,3.70
2022-08-16T05:36:58.752Z,3.92
2022-08-16T05:41:32.226Z,3.53
2022-08-16T05:45:57.786Z,3.83
2022-08-16T05:50:20.468Z,3.05
2022-08-16T05:55:01.146Z,3.20
2022-08-16T05:59:28.106Z,3.20
2022-08-16T06:03:52.589Z,3.20
2022-08-16T06:08:31.764Z,3.53
2022-08-16T06:12:57.606Z,3.05
2022-08-16T06:17:22.847Z,3.03
2022-08-16T06:21:54.888Z,2.95
2022-08-16T06:26:18.608Z,2.70
2022-08-16T06:30:43.344Z,2.60
2022-08-16T06:35:07.905Z,2.38
2022-08-16T06:39:31.964Z,2.58
2022-08-16T06:44:02.046Z,2.65
2022-08-16T06:48:32.133Z,2.50
2022-08-16T06:52:58.181Z,2.50
2022-08-16T06:57:23.298Z,2.55
2022-08-16T07:01:53.731Z,2.75
2022-08-16T07:06:21.720Z,2.67
2022-08-16T07:10:52.287Z,3.08
2022-08-16T07:15:17.026Z,2.78
2022-08-16T07:20:03.474Z,2.30
2022-08-16T07:24:36.147Z,2.30
2022-08-16T07:29:08.726Z,2.42
2022-08-16T07:33:52.951Z,2.47
2022-08-16T07:38:33.893Z,2.65
2022-08-16T07:42:58.406Z,2.45
2022-08-16T07:47:24.643Z,2.33
2022-08-16T07:51:56.078Z,2.55
2022-08-16T07:56:23.407Z,2.40
2022-08-16T08:00:58.520Z,6.07
2022-08-16T08:05:25.427Z,2.40
2022-08-16T08:10:00.029Z,2.75
2022-08-16T08:14:30.011Z,2.28
2022-08-16T08:19:00.926Z,2.58
2022-08-16T08:23:25.826Z,2.40
2022-08-16T08:27:48.665Z,2.33
2022-08-16T08:32:58.422Z,2.20
2022-08-16T08:36:57.855Z,2.55
2022-08-16T08:41:32.733Z,2.42
2022-08-16T08:45:57.530Z,2.63
2022-08-16T08:50:31.604Z,2.03
2022-08-16T08:54:55.426Z,2.10
2022-08-16T08:59:20.361Z,2.50
2022-08-16T09:03:44.867Z,2.30
2022-08-16T09:08:09.086Z,2.40
2022-08-16T09:12:53.773Z,2.20
2022-08-16T09:17:48.735Z,2.40
2022-08-16T09:22:20.014Z,2.25
2022-08-16T09:26:46.574Z,2.00
2022-08-16T09:31:11.226Z,2.47
2022-08-16T09:35:37.218Z,1.90
2022-08-16T09:40:02.495Z,2.20
2022-08-16T09:45:11.228Z,2.20
2022-08-16T09:49:36.760Z,1.83
2022-08-16T09:53:59.845Z,2.22
2022-08-16T09:58:40.542Z,1.90
2022-08-16T10:03:06.084Z,2.08
2022-08-16T10:07:44.734Z,1.80
2022-08-16T10:12:26.822Z,2.15
2022-08-16T10:16:51.605Z,2.20
2022-08-16T10:21:22.690Z,2.30
2022-08-16T10:27:00.727Z,2.40
2022-08-16T10:30:32.744Z,1.92
2022-08-16T10:34:58.050Z,1.60
2022-08-16T10:39:20.806Z,1.92
2022-08-16T10:43:43.928Z,2.20
2022-08-16T10:48:27.522Z,1.90
2022-08-16T10:52:52.618Z,2.10
2022-08-16T10:57:24.585Z,2.17
2022-08-16T11:06:30.156Z,2.35
2022-08-16T11:11:06.901Z,1.92
2022-08-16T11:15:36.050Z,1.98
2022-08-16T11:20:41.391Z,1.85
2022-08-16T11:24:44.558Z,2.03
2022-08-16T11:29:15.514Z,2.30
2022-08-16T11:33:53.700Z,2.28
2022-08-16T11:38:46.600Z,2.45
2022-08-16T11:43:05.115Z,2.47
2022-08-16T11:47:27.502Z,2.85
2022-08-16T11:51:50.335Z,2.42
2022-08-16T11:56:14.873Z,3.03
2022-08-16T12:00:50.337Z,2.67
2022-08-16T12:05:16.767Z,2.67
2022-08-16T12:09:43.342Z,2.63
2022-08-16T12:14:08.359Z,2.90
2022-08-16T12:18:31.250Z,2.67
2022-08-16T12:22:54.662Z,2.58
2022-08-16T12:27:18.261Z,2.63
2022-08-16T12:32:26.636Z,2.80
2022-08-16T12:36:23.248Z,2.90
2022-08-16T12:40:53.050Z,2.72
2022-08-16T12:45:22.263Z,2.70
2022-08-16T12:49:45.169Z,2.70
2022-08-16T12:54:10.020Z,2.70
2022-08-16T12:58:48.661Z,2.67
2022-08-16T13:03:13.948Z,3.20
2022-08-16T13:07:45.170Z,2.70
2022-08-16T13:12:23.745Z,3.40
2022-08-16T13:16:47.546Z,3.15
2022-08-16T13:21:11.817Z,2.55
2022-08-16T13:25:37.197Z,2.53
2022-08-16T13:30:00.024Z,2.83
2022-08-16T13:34:22.645Z,2.38
2022-08-16T13:38:46.960Z,2.70
2022-08-16T13:43:11.788Z,2.90
2022-08-16T13:47:34.925Z,2.83
2022-08-16T13:51:57.805Z,2.67
2022-08-16T13:56:24.935Z,2.92
2022-08-16T14:00:47.319Z,2.88
2022-08-16T14:05:20.066Z,2.90
2022-08-16T14:09:45.344Z,2.53
2022-08-16T14:14:07.698Z,3.10
2022-08-16T14:18:33.517Z,2.28
2022-08-16T14:22:56.497Z,2.42
2022-08-16T14:27:24.785Z,2.78
2022-08-16T14:31:49.598Z,2.42
2022-08-16T14:36:25.193Z,2.47
2022-08-16T14:40:55.091Z,2.70
2022-08-16T14:45:22.864Z,2.40
2022-08-16T14:49:45.445Z,2.40
2022-08-16T14:54:11.427Z,2.08
2022-08-16T14:58:36.647Z,2.00
2022-08-16T15:03:04.833Z,2.10
2022-08-16T15:07:30.545Z,2.38
2022-08-16T15:11:56.984Z,2.35
2022-08-16T15:16:20.164Z,2.10
2022-08-16T15:20:44.445Z,2.50
2022-08-16T15:25:20.856Z,2.40
2022-08-16T15:29:44.189Z,2.10
2022-08-16T15:34:06.616Z,2.28
2022-08-16T15:39:02.681Z,2.10
2022-08-16T15:43:18.773Z,2.47
2022-08-16T15:47:42.924Z,2.30
2022-08-16T15:52:28.973Z,2.35
2022-08-16T15:56:55.371Z,1.77
2022-08-16T16:01:21.251Z,2.30
2022-08-16T16:05:52.586Z,2.25
2022-08-16T16:10:15.185Z,2.20
2022-08-16T16:14:37.984Z,3.00
2022-08-16T16:19:01.436Z,2.50
2022-08-16T16:23:31.422Z,2.78
2022-08-16T16:27:55.816Z,6.10
2022-08-16T16:32:34.125Z,5.35
2022-08-16T16:36:57.107Z,2.80
2022-08-16T16:41:24.863Z,2.72
2022-08-16T16:45:48.804Z,2.20
2022-08-16T16:50:13.063Z,2.88
2022-08-16T16:54:35.826Z,2.20
2022-08-16T16:59:01.532Z,3.13
2022-08-16T17:03:25.050Z,2.40
2022-08-16T17:07:48.102Z,2.40
2022-08-16T17:12:17.636Z,2.25
2022-08-16T17:16:47.344Z,2.05
2022-08-16T17:21:10.007Z,2.22
2022-08-16T17:25:36.621Z,2.20
2022-08-16T17:30:16.111Z,2.17
2022-08-16T17:34:46.435Z,2.20
2022-08-16T17:39:13.525Z,2.83
2022-08-16T17:43:44.170Z,2.28
2022-08-16T17:48:07.774Z,2.63
2022-08-16T17:52:30.165Z,3.78
2022-08-16T17:56:54.098Z,3.30
2022-08-16T18:01:18.290Z,3.00
2022-08-16T18:05:41.446Z,2.65
2022-08-16T18:10:05.224Z,3.10
2022-08-16T18:14:51.369Z,3.17
2022-08-16T18:19:11.009Z,2.90
2022-08-16T18:23:34.485Z,2.42
2022-08-16T18:27:56.955Z,3.25
2022-08-16T18:32:22.149Z,3.90
2022-08-16T18:36:49.226Z,4.28
2022-08-16T18:41:11.581Z,3.15
2022-08-16T18:45:37.075Z,3.15
2022-08-16T18:50:00.627Z,3.30
2022-08-16T18:54:24.828Z,4.03
2022-08-16T18:58:47.168Z,3.30
2022-08-16T19:03:15.657Z,2.75
2022-08-16T19:07:38.008Z,2.92
2022-08-16T19:12:05.490Z,4.82
2022-08-16T19:16:27.849Z,3.53
2022-08-16T19:20:51.465Z,2.95
2022-08-16T19:25:14.211Z,3.05
2022-08-16T19:29:37.439Z,3.20
2022-08-16T19:34:00.965Z,3.15
2022-08-16T19:38:23.539Z,3.08
2022-08-16T19:42:48.448Z,3.53
2022-08-16T19:47:11.625Z,3.40
2022-08-16T19:51:33.786Z,4.57
2022-08-16T19:55:56.406Z,6.95
2022-08-16T20:00:19.348Z,4.78
2022-08-16T20:04:42.699Z,5.88
2022-08-16T20:09:05.090Z,4.68
2022-08-16T20:13:27.559Z,3.33
2022-08-16T20:17:50.867Z,3.50
2022-08-16T20:22:52.416Z,3.33
2022-08-16T20:27:13.480Z,3.83
2022-08-16T20:31:35.979Z,2.80
2022-08-16T20:35:59.862Z,2.97
2022-08-16T20:40:34.206Z,3.13
2022-08-16T20:44:57.921Z,3.10
2022-08-16T20:49:20.271Z,3.20
2022-08-16T20:53:44.361Z,3.00
2022-08-16T20:58:06.670Z,3.33
2022-08-16T21:02:29.147Z,3.65
2022-08-16T21:06:53.856Z,4.63
2022-08-16T21:11:17.367Z,3.80
2022-08-16T21:15:39.728Z,3.70
2022-08-16T21:20:02.250Z,3.65
2022-08-16T21:24:25.207Z,3.00
2022-08-16T21:28:48.986Z,4.10
2022-08-16T21:33:15.846Z,4.18
2022-08-16T21:37:38.829Z,4.07
2022-08-16T21:42:01.415Z,3.88
2022-08-16T21:46:23.524Z,3.80
2022-08-16T21:50:46.127Z,3.78
2022-08-16T21:55:09.100Z,3.75
2022-08-16T21:59:31.514Z,3.45
2022-08-16T22:04:35.388Z,3.08
2022-08-16T22:08:45.640Z,3.22
2022-08-16T22:13:24.454Z,3.00
2022-08-16T22:17:46.697Z,3.47
2022-08-16T22:22:08.999Z,3.25
2022-08-16T22:26:40.877Z,3.55
2022-08-16T22:31:05.480Z,3.40
2022-08-16T22:35:27.707Z,3.30
2022-08-16T22:39:50.353Z,3.53
2022-08-16T22:44:13.356Z,3.33
2022-08-16T22:48:39.550Z,3.42
2022-08-16T22:53:06.424Z,3.47
2022-08-16T22:57:28.657Z,3.53
2022-08-16T23:01:51.357Z,3.00
2022-08-16T23:06:14.037Z,3.75
2022-08-16T23:10:36.896Z,3.70
2022-08-16T23:15:04.615Z,3.75
2022-08-16T23:19:27.436Z,3.17
2022-08-16T23:23:50.255Z,3.25
2022-08-16T23:28:14.690Z,3.63
2022-08-16T23:32:45.229Z,3.45
2022-08-16T23:37:07.774Z,3.53
2022-08-16T23:41:34.218Z,3.70
2022-08-16T23:46:01.059Z,3.45
2022-08-16T23:50:25.917Z,3.38
2022-08-16T23:54:48.325Z,3.53
2022-08-16T23:59:11.517Z,3.15
